Airport View

Enter AWOS ICAO identifier for current METAR.

ex. KFNL

KARW 212335Z AUTO 12003KT 7SM CLR 23/18 A3021 RMK AO2

21 Sep 2019 23:44

Frequency: 119.675

Phone: 843-524-1000

Other Area AWOS: KNBC - KHXD - KRBW - KSAV

TAF KNBC 2121/2221 10005KT 9999 SKC QNH3018INS BECMG 2204/2206 09005KT 9999 SCT030 QNH3015INS T20/2209Z T29/2218Z